sensor_id;sensor_type;location;lat;lon;timestamp;pressure;altitude;pressure_sealevel;temperature;humidity
6425;BME280;12193;42.642;23.384;2023-12-20T00:01:38;94792.81;;;1.34;100.00
6425;BME280;12193;42.642;23.384;2023-12-20T00:04:08;94795.38;;;1.34;100.00
6425;BME280;12193;42.642;23.384;2023-12-20T00:06:37;94786.06;;;1.33;100.00
6425;BME280;12193;42.642;23.384;2023-12-20T00:09:06;94784.50;;;1.32;100.00
6425;BME280;12193;42.642;23.384;2023-12-20T00:11:35;94774.38;;;1.30;100.00
6425;BME280;12193;42.642;23.384;2023-12-20T00:14:04;94778.72;;;1.20;100.00
6425;BME280;12193;42.642;23.384;2023-12-20T00:16:36;94780.19;;;1.13;100.00
6425;BME280;12193;42.642;23.384;2023-12-20T00:19:06;94785.59;;;1.10;100.00
6425;BME280;12193;42.642;23.384;2023-12-20T00:21:35;94779.94;;;1.16;100.00
6425;BME280;12193;42.642;23.384;2023-12-20T00:24:05;94779.69;;;1.10;100.00
6425;BME280;12193;42.642;23.384;2023-12-20T00:26:34;94782.34;;;1.08;100.00
6425;BME280;12193;42.642;23.384;2023-12-20T00:29:03;94777.13;;;1.01;100.00
6425;BME280;12193;42.642;23.384;2023-12-20T00:31:32;94763.78;;;1.06;100.00
6425;BME280;12193;42.642;23.384;2023-12-20T00:34:04;94757.44;;;1.10;100.00
6425;BME280;12193;42.642;23.384;2023-12-20T00:36:33;94761.66;;;0.93;100.00
6425;BME280;12193;42.642;23.384;2023-12-20T00:39:02;94758.56;;;0.89;100.00
6425;BME280;12193;42.642;23.384;2023-12-20T00:41:33;94753.72;;;0.96;100.00
6425;BME280;12193;42.642;23.384;2023-12-20T00:44:02;94751.81;;;0.98;100.00
6425;BME280;12193;42.642;23.384;2023-12-20T00:46:31;94746.31;;;0.93;100.00
6425;BME280;12193;42.642;23.384;2023-12-20T00:49:03;94750.91;;;0.89;100.00
6425;BME280;12193;42.642;23.384;2023-12-20T00:51:33;94746.06;;;0.86;100.00
6425;BME280;12193;42.642;23.384;2023-12-20T00:54:02;94740.94;;;0.86;100.00
6425;BME280;12193;42.642;23.384;2023-12-20T00:56:31;94734.06;;;0.87;100.00
6425;BME280;12193;42.642;23.384;2023-12-20T00:59:00;94733.94;;;0.79;100.00
6425;BME280;12193;42.642;23.384;2023-12-20T01:01:30;94730.47;;;0.70;100.00
6425;BME280;12193;42.642;23.384;2023-12-20T01:03:59;94730.56;;;0.78;100.00
6425;BME280;12193;42.642;23.384;2023-12-20T01:06:31;94725.59;;;0.77;100.00
6425;BME280;12193;42.642;23.384;2023-12-20T04:09:04;94566.13;;;0.03;100.00
6425;BME280;12193;42.642;23.384;2023-12-20T04:11:36;94565.63;;;0.00;100.00
6425;BME280;12193;42.642;23.384;2023-12-20T04:14:06;94558.59;;;-0.07;100.00
6425;BME280;12193;42.642;23.384;2023-12-20T04:16:36;94552.19;;;-0.21;100.00
6425;BME280;12193;42.642;23.384;2023-12-20T04:19:05;94561.44;;;-0.20;100.00
6425;BME280;12193;42.642;23.384;2023-12-20T04:21:34;94551.09;;;-0.18;100.00
6425;BME280;12193;42.642;23.384;2023-12-20T04:24:06;94551.22;;;-0.20;100.00
6425;BME280;12193;42.642;23.384;2023-12-20T04:26:36;94546.78;;;-0.18;100.00
6425;BME280;12193;42.642;23.384;2023-12-20T04:29:05;94547.47;;;-0.16;100.00
6425;BME280;12193;42.642;23.384;2023-12-20T04:31:34;94541.16;;;-0.12;100.00
6425;BME280;12193;42.642;23.384;2023-12-20T04:34:03;94536.31;;;-0.24;100.00
6425;BME280;12193;42.642;23.384;2023-12-20T04:36:33;94542.38;;;-0.25;100.00
6425;BME280;12193;42.642;23.384;2023-12-20T04:39:10;94531.63;;;-0.19;100.00
6425;BME280;12193;42.642;23.384;2023-12-20T04:41:39;94531.09;;;-0.23;100.00
6425;BME280;12193;42.642;23.384;2023-12-20T04:44:08;94532.56;;;-0.20;100.00
6425;BME280;12193;42.642;23.384;2023-12-20T04:46:43;94542.50;;;-0.36;100.00
6425;BME280;12193;42.642;23.384;2023-12-20T04:49:12;94529.09;;;-0.48;100.00
6425;BME280;12193;42.642;23.384;2023-12-20T04:51:41;94521.44;;;-0.48;100.00
6425;BME280;12193;42.642;23.384;2023-12-20T04:54:13;94517.94;;;-0.56;100.00
6425;BME280;12193;42.642;23.384;2023-12-20T04:56:42;94525.44;;;-0.64;100.00
6425;BME280;12193;42.642;23.384;2023-12-20T04:59:11;94522.22;;;-0.76;100.00
6425;BME280;12193;42.642;23.384;2023-12-20T05:01:41;94515.91;;;-0.81;100.00
6425;BME280;12193;42.642;23.384;2023-12-20T05:04:10;94520.72;;;-0.88;100.00
6425;BME280;12193;42.642;23.384;2023-12-20T05:06:39;94523.94;;;-1.04;100.00
6425;BME280;12193;42.642;23.384;2023-12-20T05:09:08;94529.53;;;-1.10;100.00
6425;BME280;12193;42.642;23.384;2023-12-20T05:11:40;94522.16;;;-1.04;100.00
6425;BME280;12193;42.642;23.384;2023-12-20T05:14:10;94519.16;;;-1.28;100.00
6425;BME280;12193;42.642;23.384;2023-12-20T05:16:39;94500.78;;;-1.22;100.00
6425;BME280;12193;42.642;23.384;2023-12-20T05:19:08;94502.59;;;-1.82;100.00
6425;BME280;12193;42.642;23.384;2023-12-20T05:21:37;94516.78;;;-1.89;100.00
6425;BME280;12193;42.642;23.384;2023-12-20T05:24:06;94504.03;;;-1.89;100.00
6425;BME280;12193;42.642;23.384;2023-12-20T05:26:36;94507.72;;;-2.03;100.00
6425;BME280;12193;42.642;23.384;2023-12-20T05:29:08;94500.56;;;-1.88;100.00
6425;BME280;12193;42.642;23.384;2023-12-20T05:31:37;94488.97;;;-2.22;100.00
6425;BME280;12193;42.642;23.384;2023-12-20T05:34:06;94489.38;;;-2.26;100.00
6425;BME280;12193;42.642;23.384;2023-12-20T05:36:36;94491.97;;;-2.17;100.00
6425;BME280;12193;42.642;23.384;2023-12-20T05:39:05;94500.91;;;-2.22;100.00
6425;BME280;12193;42.642;23.384;2023-12-20T05:41:34;94498.78;;;-2.38;100.00
6425;BME280;12193;42.642;23.384;2023-12-20T05:44:03;94491.41;;;-2.20;100.00
6425;BME280;12193;42.642;23.384;2023-12-20T05:46:35;94494.41;;;-2.15;100.00
6425;BME280;12193;42.642;23.384;2023-12-20T05:49:06;94490.50;;;-1.90;100.00
6425;BME280;12193;42.642;23.384;2023-12-20T05:51:35;94485.53;;;-1.91;100.00
6425;BME280;12193;42.642;23.384;2023-12-20T05:54:04;94502.88;;;-2.06;100.00
6425;BME280;12193;42.642;23.384;2023-12-20T05:56:33;94479.75;;;-1.93;100.00
6425;BME280;12193;42.642;23.384;2023-12-20T05:59:03;94480.00;;;-1.96;100.00
6425;BME280;12193;42.642;23.384;2023-12-20T06:01:35;94474.78;;;-2.04;100.00
6425;BME280;12193;42.642;23.384;2023-12-20T06:04:04;94475.59;;;-1.94;100.00
6425;BME280;12193;42.642;23.384;2023-12-20T06:06:33;94475.50;;;-1.83;100.00
6425;BME280;12193;42.642;23.384;2023-12-20T06:09:02;94464.25;;;-1.90;100.00
6425;BME280;12193;42.642;23.384;2023-12-20T06:11:31;94477.75;;;-2.19;100.00
6425;BME280;12193;42.642;23.384;2023-12-20T06:14:01;94478.94;;;-2.23;100.00
6425;BME280;12193;42.642;23.384;2023-12-20T06:16:38;94474.78;;;-2.24;100.00
6425;BME280;12193;42.642;23.384;2023-12-20T06:19:07;94479.72;;;-2.23;100.00
6425;BME280;12193;42.642;23.384;2023-12-20T06:21:36;94488.09;;;-2.11;100.00
6425;BME280;12193;42.642;23.384;2023-12-20T06:24:06;94492.25;;;-2.10;100.00
6425;BME280;12193;42.642;23.384;2023-12-20T06:26:35;94484.22;;;-1.86;100.00
6425;BME280;12193;42.642;23.384;2023-12-20T06:29:04;94486.91;;;-1.87;100.00
6425;BME280;12193;42.642;23.384;2023-12-20T06:31:34;94485.75;;;-1.74;100.00
6425;BME280;12193;42.642;23.384;2023-12-20T06:34:06;94484.53;;;-1.70;100.00
6425;BME280;12193;42.642;23.384;2023-12-20T06:36:40;94483.34;;;-1.66;100.00
6425;BME280;12193;42.642;23.384;2023-12-20T06:39:14;94480.19;;;-1.49;100.00
6425;BME280;12193;42.642;23.384;2023-12-20T06:41:44;94484.50;;;-0.82;100.00
6425;BME280;12193;42.642;23.384;2023-12-20T06:44:13;94482.06;;;-0.55;100.00
6425;BME280;12193;42.642;23.384;2023-12-20T06:46:42;94470.50;;;-0.49;100.00
6425;BME280;12193;42.642;23.384;2023-12-20T06:49:11;94471.84;;;0.73;100.00
6425;BME280;12193;42.642;23.384;2023-12-20T06:51:41;94458.97;;;1.79;100.00
6425;BME280;12193;42.642;23.384;2023-12-20T06:54:10;94453.88;;;2.79;100.00
6425;BME280;12193;42.642;23.384;2023-12-20T06:56:39;94455.63;;;4.70;100.00
6425;BME280;12193;42.642;23.384;2023-12-20T06:59:08;94454.66;;;5.01;100.00
6425;BME280;12193;42.642;23.384;2023-12-20T07:01:38;94449.28;;;4.80;100.00
6425;BME280;12193;42.642;23.384;2023-12-20T07:04:08;94453.88;;;5.53;100.00
6425;BME280;12193;42.642;23.384;2023-12-20T07:06:45;94455.66;;;6.63;100.00
6425;BME280;12193;42.642;23.384;2023-12-20T07:09:14;94444.63;;;6.26;94.92
6425;BME280;12193;42.642;23.384;2023-12-20T07:11:49;94442.50;;;6.73;94.05
6425;BME280;12193;42.642;23.384;2023-12-20T07:14:18;94450.09;;;7.80;85.06
6425;BME280;12193;42.642;23.384;2023-12-20T07:16:47;94442.84;;;6.99;88.04
6425;BME280;12193;42.642;23.384;2023-12-20T07:19:17;94441.44;;;6.02;93.46
6425;BME280;12193;42.642;23.384;2023-12-20T07:21:48;94437.66;;;6.12;94.52
6425;BME280;12193;42.642;23.384;2023-12-20T07:24:18;94432.09;;;5.86;95.58
6425;BME280;12193;42.642;23.384;2023-12-20T07:26:47;94426.66;;;6.32;94.03
6425;BME280;12193;42.642;23.384;2023-12-20T07:29:16;94421.66;;;6.17;91.77
6425;BME280;12193;42.642;23.384;2023-12-20T07:31:46;94428.72;;;4.42;100.00
6425;BME280;12193;42.642;23.384;2023-12-20T07:34:15;94422.53;;;3.41;100.00
6425;BME280;12193;42.642;23.384;2023-12-20T07:36:45;94417.53;;;2.50;100.00
6425;BME280;12193;42.642;23.384;2023-12-20T07:39:17;94426.88;;;1.93;100.00
6425;BME280;12193;42.642;23.384;2023-12-20T07:41:46;94432.03;;;1.58;100.00
6425;BME280;12193;42.642;23.384;2023-12-20T07:44:15;94435.69;;;1.30;100.00
6425;BME280;12193;42.642;23.384;2023-12-20T07:46:44;94440.34;;;1.00;100.00
6425;BME280;12193;42.642;23.384;2023-12-20T07:49:14;94437.94;;;0.54;100.00
6425;BME280;12193;42.642;23.384;2023-12-20T07:51:44;94428.88;;;0.32;100.00
6425;BME280;12193;42.642;23.384;2023-12-20T07:54:15;94421.00;;;-0.10;100.00
6425;BME280;12193;42.642;23.384;2023-12-20T07:56:45;94424.19;;;-0.08;100.00
6425;BME280;12193;42.642;23.384;2023-12-20T07:59:15;94423.75;;;0.05;100.00
6425;BME280;12193;42.642;23.384;2023-12-20T08:01:44;94421.75;;;-0.01;100.00
6425;BME280;12193;42.642;23.384;2023-12-20T08:04:13;94427.44;;;-0.16;100.00
6425;BME280;12193;42.642;23.384;2023-12-20T08:06:42;94424.50;;;-0.11;100.00
6425;BME280;12193;42.642;23.384;2023-12-20T08:09:12;94424.59;;;-0.03;100.00
6425;BME280;12193;42.642;23.384;2023-12-20T08:11:48;94416.72;;;0.44;100.00
6425;BME280;12193;42.642;23.384;2023-12-20T08:14:17;94412.13;;;0.20;100.00
6425;BME280;12193;42.642;23.384;2023-12-20T08:16:47;94395.88;;;0.83;100.00
6425;BME280;12193;42.642;23.384;2023-12-20T08:19:16;94401.09;;;0.91;100.00
6425;BME280;12193;42.642;23.384;2023-12-20T08:21:45;94414.59;;;0.84;100.00
6425;BME280;12193;42.642;23.384;2023-12-20T08:24:14;94411.75;;;0.69;100.00
6425;BME280;12193;42.642;23.384;2023-12-20T08:26:43;94411.53;;;0.53;100.00
6425;BME280;12193;42.642;23.384;2023-12-20T08:29:23;94400.44;;;0.89;100.00
6425;BME280;12193;42.642;23.384;2023-12-20T08:32:03;94400.91;;;1.45;100.00
6425;BME280;12193;42.642;23.384;2023-12-20T08:34:33;94393.47;;;0.82;100.00
6425;BME280;12193;42.642;23.384;2023-12-20T08:37:02;94385.56;;;0.58;100.00
6425;BME280;12193;42.642;23.384;2023-12-20T08:39:32;94378.41;;;0.96;100.00
6425;BME280;12193;42.642;23.384;2023-12-20T08:42:01;94376.59;;;1.06;100.00
6425;BME280;12193;42.642;23.384;2023-12-20T08:44:36;94372.63;;;0.94;100.00
6425;BME280;12193;42.642;23.384;2023-12-20T08:47:05;94364.38;;;0.83;100.00
6425;BME280;12193;42.642;23.384;2023-12-20T08:49:34;94367.75;;;1.01;100.00
6425;BME280;12193;42.642;23.384;2023-12-20T08:52:05;94374.03;;;0.89;100.00
6425;BME280;12193;42.642;23.384;2023-12-20T08:54:34;94363.66;;;1.07;100.00
6425;BME280;12193;42.642;23.384;2023-12-20T08:57:04;94374.25;;;1.12;100.00
6425;BME280;12193;42.642;23.384;2023-12-20T08:59:39;94358.16;;;1.20;100.00
6425;BME280;12193;42.642;23.384;2023-12-20T09:02:08;94359.47;;;1.24;100.00
6425;BME280;12193;42.642;23.384;2023-12-20T09:04:37;94358.47;;;1.00;100.00
6425;BME280;12193;42.642;23.384;2023-12-20T09:07:07;94346.13;;;0.78;100.00
6425;BME280;12193;42.642;23.384;2023-12-20T09:09:36;94329.91;;;0.69;100.00
6425;BME280;12193;42.642;23.384;2023-12-20T09:12:06;94327.03;;;0.90;100.00
6425;BME280;12193;42.642;23.384;2023-12-20T09:14:41;94318.78;;;0.78;100.00
6425;BME280;12193;42.642;23.384;2023-12-20T09:17:10;94301.19;;;0.75;100.00
6425;BME280;12193;42.642;23.384;2023-12-20T09:19:39;94301.13;;;0.50;100.00
6425;BME280;12193;42.642;23.384;2023-12-20T09:22:15;94302.50;;;0.62;100.00
6425;BME280;12193;42.642;23.384;2023-12-20T09:24:44;94290.69;;;0.43;100.00
6425;BME280;12193;42.642;23.384;2023-12-20T09:27:13;94291.03;;;0.66;100.00
6425;BME280;12193;42.642;23.384;2023-12-20T09:29:48;94279.97;;;0.83;100.00
6425;BME280;12193;42.642;23.384;2023-12-20T09:32:17;94272.91;;;0.59;100.00
6425;BME280;12193;42.642;23.384;2023-12-20T09:34:47;94275.41;;;0.86;100.00
6425;BME280;12193;42.642;23.384;2023-12-20T09:37:16;94266.38;;;1.00;100.00
6425;BME280;12193;42.642;23.384;2023-12-20T09:39:45;94244.78;;;0.77;100.00
6425;BME280;12193;42.642;23.384;2023-12-20T09:42:20;94260.00;;;0.43;100.00
6425;BME280;12193;42.642;23.384;2023-12-20T09:44:53;94255.47;;;0.55;100.00
6425;BME280;12193;42.642;23.384;2023-12-20T09:47:23;94249.69;;;0.70;100.00
6425;BME280;12193;42.642;23.384;2023-12-20T09:49:54;94232.66;;;1.04;100.00
6425;BME280;12193;42.642;23.384;2023-12-20T09:52:24;94243.69;;;1.04;100.00
6425;BME280;12193;42.642;23.384;2023-12-20T09:54:53;94243.09;;;1.10;100.00
6425;BME280;12193;42.642;23.384;2023-12-20T09:57:24;94234.81;;;1.16;100.00
6425;BME280;12193;42.642;23.384;2023-12-20T09:59:56;94233.47;;;1.30;100.00
6425;BME280;12193;42.642;23.384;2023-12-20T10:02:26;94230.66;;;1.82;100.00
6425;BME280;12193;42.642;23.384;2023-12-20T10:04:56;94223.09;;;2.46;100.00
6425;BME280;12193;42.642;23.384;2023-12-20T10:07:25;94213.50;;;2.56;100.00
6425;BME280;12193;42.642;23.384;2023-12-20T10:09:54;94206.66;;;3.34;100.00
6425;BME280;12193;42.642;23.384;2023-12-20T10:12:24;94205.25;;;3.70;100.00
6425;BME280;12193;42.642;23.384;2023-12-20T10:15:02;94197.41;;;4.92;100.00
6425;BME280;12193;42.642;23.384;2023-12-20T10:17:32;94198.81;;;5.45;100.00
6425;BME280;12193;42.642;23.384;2023-12-20T10:20:01;94197.53;;;6.14;100.00
6425;BME280;12193;42.642;23.384;2023-12-20T10:22:36;94190.28;;;4.34;100.00
6425;BME280;12193;42.642;23.384;2023-12-20T10:25:07;94189.16;;;4.96;100.00
6425;BME280;12193;42.642;23.384;2023-12-20T10:27:37;94179.50;;;4.98;100.00
6425;BME280;12193;42.642;23.384;2023-12-20T10:30:12;94180.25;;;5.79;100.00
6425;BME280;12193;42.642;23.384;2023-12-20T10:32:42;94170.84;;;4.54;100.00
6425;BME280;12193;42.642;23.384;2023-12-20T10:35:08;94175.38;;;4.52;100.00
6425;BME280;12193;42.642;23.384;2023-12-20T10:37:39;94172.50;;;4.47;100.00
6425;BME280;12193;42.642;23.384;2023-12-20T10:40:09;94163.16;;;3.71;100.00
6425;BME280;12193;42.642;23.384;2023-12-20T10:42:40;94161.69;;;4.07;100.00
6425;BME280;12193;42.642;23.384;2023-12-20T10:45:12;94146.44;;;4.06;100.00
6425;BME280;12193;42.642;23.384;2023-12-20T10:47:46;94145.13;;;2.95;100.00
6425;BME280;12193;42.642;23.384;2023-12-20T10:50:15;94149.19;;;2.57;100.00
6425;BME280;12193;42.642;23.384;2023-12-20T10:52:55;94146.72;;;3.04;100.00
6425;BME280;12193;42.642;23.384;2023-12-20T10:55:30;94145.47;;;2.92;100.00
6425;BME280;12193;42.642;23.384;2023-12-20T10:58:01;94137.38;;;3.18;100.00
6425;BME280;12193;42.642;23.384;2023-12-20T11:00:35;94144.88;;;2.50;100.00
6425;BME280;12193;42.642;23.384;2023-12-20T11:03:09;94121.78;;;2.26;100.00
6425;BME280;12193;42.642;23.384;2023-12-20T11:05:44;94132.41;;;2.23;100.00
6425;BME280;12193;42.642;23.384;2023-12-20T11:08:22;94114.88;;;2.74;100.00
6425;BME280;12193;42.642;23.384;2023-12-20T11:10:59;94116.66;;;3.58;100.00
6425;BME280;12193;42.642;23.384;2023-12-20T11:13:34;94117.34;;;3.14;100.00
6425;BME280;12193;42.642;23.384;2023-12-20T11:16:07;94105.88;;;2.78;100.00
6425;BME280;12193;42.642;23.384;2023-12-20T11:18:37;94109.66;;;2.98;100.00
6425;BME280;12193;42.642;23.384;2023-12-20T11:21:11;94088.56;;;2.80;100.00
6425;BME280;12193;42.642;23.384;2023-12-20T11:23:42;94094.38;;;2.58;100.00
6425;BME280;12193;42.642;23.384;2023-12-20T11:26:15;94084.88;;;2.75;100.00
6425;BME280;12193;42.642;23.384;2023-12-20T11:28:44;94073.84;;;3.20;100.00
6425;BME280;12193;42.642;23.384;2023-12-20T11:31:16;94073.41;;;3.39;100.00
6425;BME280;12193;42.642;23.384;2023-12-20T11:33:46;94064.13;;;3.30;100.00
6425;BME280;12193;42.642;23.384;2023-12-20T11:36:19;94054.94;;;3.44;100.00
6425;BME280;12193;42.642;23.384;2023-12-20T11:38:57;94047.59;;;3.03;100.00
6425;BME280;12193;42.642;23.384;2023-12-20T11:41:26;94052.09;;;2.54;100.00
6425;BME280;12193;42.642;23.384;2023-12-20T11:43:56;94044.09;;;2.25;100.00
6425;BME280;12193;42.642;23.384;2023-12-20T11:46:31;94046.00;;;2.47;100.00
6425;BME280;12193;42.642;23.384;2023-12-20T11:49:00;94041.38;;;2.43;100.00
6425;BME280;12193;42.642;23.384;2023-12-20T11:51:29;94035.22;;;2.60;100.00
6425;BME280;12193;42.642;23.384;2023-12-20T11:53:58;94038.94;;;2.49;100.00
6425;BME280;12193;42.642;23.384;2023-12-20T11:56:28;94024.53;;;2.87;100.00
6425;BME280;12193;42.642;23.384;2023-12-20T11:58:58;94015.75;;;3.19;100.00
6425;BME280;12193;42.642;23.384;2023-12-20T12:01:31;94011.56;;;3.18;100.00
6425;BME280;12193;42.642;23.384;2023-12-20T12:04:05;94004.09;;;3.09;100.00
6425;BME280;12193;42.642;23.384;2023-12-20T12:06:34;93994.91;;;2.76;100.00
6425;BME280;12193;42.642;23.384;2023-12-20T12:09:03;93991.53;;;2.84;100.00
6425;BME280;12193;42.642;23.384;2023-12-20T12:11:34;93992.53;;;2.67;100.00
6425;BME280;12193;42.642;23.384;2023-12-20T12:14:03;93980.69;;;2.66;100.00
6425;BME280;12193;42.642;23.384;2023-12-20T12:16:35;93984.25;;;2.65;100.00
6425;BME280;12193;42.642;23.384;2023-12-20T12:19:04;93980.91;;;2.87;100.00
6425;BME280;12193;42.642;23.384;2023-12-20T12:21:34;93971.53;;;2.71;100.00
6425;BME280;12193;42.642;23.384;2023-12-20T12:24:07;93976.94;;;2.76;100.00
6425;BME280;12193;42.642;23.384;2023-12-20T12:26:36;93970.44;;;2.96;100.00
6425;BME280;12193;42.642;23.384;2023-12-20T12:29:07;93956.03;;;2.95;100.00
6425;BME280;12193;42.642;23.384;2023-12-20T12:31:39;93951.19;;;3.00;100.00
6425;BME280;12193;42.642;23.384;2023-12-20T12:34:09;93961.34;;;2.86;100.00
6425;BME280;12193;42.642;23.384;2023-12-20T12:36:39;93966.63;;;3.22;100.00
6425;BME280;12193;42.642;23.384;2023-12-20T12:39:08;93952.13;;;3.52;100.00
6425;BME280;12193;42.642;23.384;2023-12-20T12:41:39;93949.53;;;3.97;100.00
6425;BME280;12193;42.642;23.384;2023-12-20T12:44:08;93946.38;;;3.87;100.00
6425;BME280;12193;42.642;23.384;2023-12-20T12:46:41;93943.88;;;3.64;100.00
6425;BME280;12193;42.642;23.384;2023-12-20T12:49:10;93948.75;;;3.51;100.00
6425;BME280;12193;42.642;23.384;2023-12-20T12:51:39;93943.63;;;3.51;100.00
6425;BME280;12193;42.642;23.384;2023-12-20T12:54:09;93932.31;;;3.38;100.00
6425;BME280;12193;42.642;23.384;2023-12-20T12:56:39;93935.03;;;3.44;100.00
6425;BME280;12193;42.642;23.384;2023-12-20T12:59:08;93937.06;;;3.49;100.00
6425;BME280;12193;42.642;23.384;2023-12-20T13:01:40;93942.50;;;3.54;100.00
6425;BME280;12193;42.642;23.384;2023-12-20T13:04:10;93944.72;;;3.34;100.00
6425;BME280;12193;42.642;23.384;2023-12-20T13:06:39;93948.03;;;3.43;100.00
6425;BME280;12193;42.642;23.384;2023-12-20T13:09:08;93944.75;;;3.26;100.00
6425;BME280;12193;42.642;23.384;2023-12-20T13:11:38;93949.00;;;2.89;100.00
6425;BME280;12193;42.642;23.384;2023-12-20T13:14:08;93943.00;;;2.74;100.00
6425;BME280;12193;42.642;23.384;2023-12-20T13:16:44;93940.56;;;2.81;100.00
6425;BME280;12193;42.642;23.384;2023-12-20T13:19:13;93941.00;;;2.84;100.00
6425;BME280;12193;42.642;23.384;2023-12-20T13:21:43;93939.75;;;2.80;100.00
6425;BME280;12193;42.642;23.384;2023-12-20T13:24:12;93936.50;;;2.56;100.00
6425;BME280;12193;42.642;23.384;2023-12-20T13:26:41;93930.34;;;2.26;100.00
6425;BME280;12193;42.642;23.384;2023-12-20T13:29:10;93937.72;;;2.29;100.00
6425;BME280;12193;42.642;23.384;2023-12-20T13:31:40;93927.66;;;2.12;100.00
6425;BME280;12193;42.642;23.384;2023-12-20T13:34:12;93924.97;;;2.13;100.00
6425;BME280;12193;42.642;23.384;2023-12-20T13:36:43;93915.00;;;2.18;100.00
6425;BME280;12193;42.642;23.384;2023-12-20T13:39:14;93916.63;;;2.11;100.00
6425;BME280;12193;42.642;23.384;2023-12-20T13:41:43;93917.53;;;2.26;100.00
6425;BME280;12193;42.642;23.384;2023-12-20T13:44:12;93919.72;;;2.37;100.00
6425;BME280;12193;42.642;23.384;2023-12-20T13:46:42;93914.00;;;2.27;100.00
6425;BME280;12193;42.642;23.384;2023-12-20T13:49:14;93919.78;;;2.29;100.00
6425;BME280;12193;42.642;23.384;2023-12-20T13:51:43;93908.88;;;2.27;100.00
6425;BME280;12193;42.642;23.384;2023-12-20T13:54:13;93903.13;;;2.25;100.00
6425;BME280;12193;42.642;23.384;2023-12-20T13:56:46;93899.09;;;2.31;100.00
6425;BME280;12193;42.642;23.384;2023-12-20T13:59:15;93909.25;;;2.08;100.00
6425;BME280;12193;42.642;23.384;2023-12-20T14:01:44;93911.69;;;2.02;100.00
6425;BME280;12193;42.642;23.384;2023-12-20T14:04:18;93918.56;;;2.48;100.00
6425;BME280;12193;42.642;23.384;2023-12-20T14:06:47;93911.84;;;2.47;100.00
6425;BME280;12193;42.642;23.384;2023-12-20T14:09:17;93893.84;;;2.63;100.00
6425;BME280;12193;42.642;23.384;2023-12-20T14:11:46;93894.84;;;2.46;100.00
6425;BME280;12193;42.642;23.384;2023-12-20T14:14:15;93902.63;;;2.60;100.00
6425;BME280;12193;42.642;23.384;2023-12-20T14:16:45;93891.63;;;2.52;100.00
6425;BME280;12193;42.642;23.384;2023-12-20T14:19:17;93890.50;;;2.85;100.00
6425;BME280;12193;42.642;23.384;2023-12-20T14:21:46;93895.81;;;2.45;100.00
6425;BME280;12193;42.642;23.384;2023-12-20T14:24:16;93892.88;;;2.25;100.00
6425;BME280;12193;42.642;23.384;2023-12-20T14:26:45;93883.16;;;2.51;100.00
6425;BME280;12193;42.642;23.384;2023-12-20T14:29:14;93892.25;;;2.54;100.00
6425;BME280;12193;42.642;23.384;2023-12-20T14:31:43;93893.75;;;2.02;100.00
6425;BME280;12193;42.642;23.384;2023-12-20T14:34:12;93888.88;;;1.69;100.00
6425;BME280;12193;42.642;23.384;2023-12-20T14:36:44;93890.59;;;1.76;100.00
6425;BME280;12193;42.642;23.384;2023-12-20T14:39:14;93910.97;;;1.46;100.00
6425;BME280;12193;42.642;23.384;2023-12-20T14:41:43;93911.28;;;1.35;100.00
6425;BME280;12193;42.642;23.384;2023-12-20T14:44:12;93908.25;;;1.55;100.00
6425;BME280;12193;42.642;23.384;2023-12-20T14:46:43;93903.13;;;1.39;100.00
6425;BME280;12193;42.642;23.384;2023-12-20T14:49:12;93902.00;;;1.18;100.00
6425;BME280;12193;42.642;23.384;2023-12-20T14:51:46;93900.88;;;1.28;100.00
6425;BME280;12193;42.642;23.384;2023-12-20T14:54:16;93908.25;;;1.31;100.00
6425;BME280;12193;42.642;23.384;2023-12-20T14:56:47;93907.75;;;1.36;100.00
6425;BME280;12193;42.642;23.384;2023-12-20T14:59:16;93917.03;;;1.37;100.00
6425;BME280;12193;42.642;23.384;2023-12-20T15:01:45;93908.88;;;1.17;100.00
6425;BME280;12193;42.642;23.384;2023-12-20T15:04:14;93903.59;;;1.35;100.00
6425;BME280;12193;42.642;23.384;2023-12-20T15:06:46;93899.13;;;1.45;100.00
6425;BME280;12193;42.642;23.384;2023-12-20T15:09:15;93906.16;;;1.43;100.00
6425;BME280;12193;42.642;23.384;2023-12-20T15:11:45;93911.13;;;1.12;100.00
6425;BME280;12193;42.642;23.384;2023-12-20T15:14:14;93911.75;;;1.06;100.00
6425;BME280;12193;42.642;23.384;2023-12-20T15:16:46;93914.28;;;0.91;100.00
6425;BME280;12193;42.642;23.384;2023-12-20T15:19:15;93905.84;;;1.06;100.00
6425;BME280;12193;42.642;23.384;2023-12-20T15:21:47;93904.56;;;1.02;100.00
6425;BME280;12193;42.642;23.384;2023-12-20T15:24:16;93910.94;;;0.90;100.00
6425;BME280;12193;42.642;23.384;2023-12-20T15:26:53;93919.41;;;1.06;100.00
6425;BME280;12193;42.642;23.384;2023-12-20T15:29:22;93896.22;;;0.92;100.00
6425;BME280;12193;42.642;23.384;2023-12-20T15:31:51;93914.25;;;0.75;100.00
6425;BME280;12193;42.642;23.384;2023-12-20T15:34:20;93910.09;;;0.82;100.00
6425;BME280;12193;42.642;23.384;2023-12-20T15:36:52;93912.53;;;0.83;100.00
6425;BME280;12193;42.642;23.384;2023-12-20T15:39:21;93910.38;;;0.63;100.00
6425;BME280;12193;42.642;23.384;2023-12-20T15:41:51;93907.22;;;0.69;100.00
6425;BME280;12193;42.642;23.384;2023-12-20T15:44:20;93911.53;;;0.76;100.00
6425;BME280;12193;42.642;23.384;2023-12-20T15:46:51;93912.19;;;0.94;100.00
6425;BME280;12193;42.642;23.384;2023-12-20T15:49:20;93912.53;;;0.99;100.00
6425;BME280;12193;42.642;23.384;2023-12-20T15:51:52;93908.22;;;1.07;100.00
6425;BME280;12193;42.642;23.384;2023-12-20T15:54:21;93916.88;;;1.14;100.00
6425;BME280;12193;42.642;23.384;2023-12-20T15:56:51;93920.53;;;0.96;100.00
6425;BME280;12193;42.642;23.384;2023-12-20T15:59:20;93916.72;;;1.08;100.00
6425;BME280;12193;42.642;23.384;2023-12-20T16:01:49;93914.31;;;1.14;100.00
6425;BME280;12193;42.642;23.384;2023-12-20T16:04:20;93932.72;;;1.18;100.00
6425;BME280;12193;42.642;23.384;2023-12-20T16:06:52;93917.03;;;1.05;100.00
6425;BME280;12193;42.642;23.384;2023-12-20T16:09:21;93923.94;;;1.20;100.00
6425;BME280;12193;42.642;23.384;2023-12-20T16:11:50;93913.34;;;1.23;100.00
6425;BME280;12193;42.642;23.384;2023-12-20T16:14:19;93913.19;;;1.33;100.00